createdAt,value
2022-11-28T00:01:41.436Z,1.08
2022-11-28T00:04:08.641Z,1.17
2022-11-28T00:06:45.787Z,0.52
2022-11-28T00:09:13.337Z,0.85
2022-11-28T00:11:41.262Z,0.73
2022-11-28T00:14:08.284Z,0.93
2022-11-28T00:16:35.403Z,0.60
2022-11-28T00:19:02.565Z,1.08
2022-11-28T00:21:29.601Z,1.30
2022-11-28T00:23:56.485Z,0.80
2022-11-28T00:26:34.538Z,1.48
2022-11-28T00:29:01.974Z,0.70
2022-11-28T00:31:31.172Z,0.93
2022-11-28T00:33:58.441Z,0.60
2022-11-28T00:36:25.605Z,0.73
2022-11-28T00:38:52.560Z,0.90
2022-11-28T00:41:21.567Z,1.27
2022-11-28T00:43:48.951Z,0.63
2022-11-28T00:46:16.499Z,0.30
2022-11-28T00:48:43.723Z,0.47
2022-11-28T00:51:13.660Z,1.05
2022-11-28T00:53:42.421Z,0.63
2022-11-28T00:56:10.761Z,0.55
2022-11-28T00:58:38.259Z,1.52
2022-11-28T01:01:17.076Z,0.60
2022-11-28T01:03:44.460Z,0.50
2022-11-28T01:06:11.796Z,0.63
2022-11-28T01:08:38.801Z,0.52
2022-11-28T01:11:12.234Z,0.88
2022-11-28T01:13:39.976Z,0.60
2022-11-28T01:16:07.379Z,0.85
2022-11-28T01:18:34.438Z,0.77
2022-11-28T01:21:01.356Z,0.40
2022-11-28T01:23:28.279Z,0.80
2022-11-28T01:25:55.543Z,0.85
2022-11-28T01:28:22.616Z,0.63
2022-11-28T01:30:49.654Z,0.80
2022-11-28T01:33:16.565Z,1.45
2022-11-28T01:35:43.585Z,0.57
2022-11-28T01:38:10.488Z,1.23
2022-11-28T01:40:45.993Z,0.75
2022-11-28T01:43:12.936Z,1.30
2022-11-28T01:45:40.282Z,0.82
2022-11-28T01:48:07.466Z,2.13
2022-11-28T01:50:37.679Z,1.13
2022-11-28T01:53:06.877Z,0.95
2022-11-28T01:55:35.932Z,1.27
2022-11-28T01:58:03.102Z,0.50
2022-11-28T02:00:30.476Z,0.75
2022-11-28T02:03:09.904Z,0.90
2022-11-28T02:05:37.114Z,0.75
2022-11-28T02:08:04.824Z,0.95
2022-11-28T02:11:02.265Z,1.05
2022-11-28T02:13:49.228Z,1.40
2022-11-28T02:16:23.791Z,0.40
2022-11-28T02:19:28.692Z,0.82
2022-11-28T02:22:26.563Z,0.25
2022-11-28T02:25:21.146Z,0.40
2022-11-28T02:27:51.204Z,0.82
2022-11-28T02:30:49.621Z,0.98
2022-11-28T02:33:38.383Z,0.50
2022-11-28T02:36:13.162Z,0.80
2022-11-28T02:38:48.974Z,1.70
2022-11-28T02:41:33.727Z,0.63
2022-11-28T02:44:14.222Z,0.45
2022-11-28T02:47:03.057Z,0.77
2022-11-28T02:49:46.094Z,1.40
2022-11-28T02:52:30.200Z,0.60
2022-11-28T02:54:57.371Z,0.55
2022-11-28T02:57:38.609Z,1.15
2022-11-28T03:00:27.466Z,0.60
2022-11-28T03:03:04.517Z,0.77
2022-11-28T03:05:40.768Z,0.68
2022-11-28T03:08:56.435Z,0.47
2022-11-28T03:11:25.786Z,0.38
2022-11-28T03:13:54.908Z,0.45
2022-11-28T03:16:27.734Z,0.90
2022-11-28T03:19:05.252Z,0.30
2022-11-28T03:21:43.243Z,0.55
2022-11-28T03:24:18.365Z,0.60
2022-11-28T03:27:14.877Z,0.70
2022-11-28T03:29:46.994Z,0.20
2022-11-28T03:32:20.808Z,0.45
2022-11-28T03:34:50.283Z,0.95
2022-11-28T03:37:25.221Z,0.80
2022-11-28T03:39:55.675Z,0.80
2022-11-28T03:42:24.329Z,0.98
2022-11-28T03:45:08.335Z,0.52
2022-11-28T03:47:39.052Z,0.65
2022-11-28T03:50:08.584Z,0.43
2022-11-28T03:52:43.709Z,0.28
2022-11-28T03:55:25.067Z,0.50
2022-11-28T03:58:00.035Z,0.93
2022-11-28T04:00:27.419Z,0.70
2022-11-28T04:03:16.937Z,1.13
2022-11-28T04:06:18.432Z,1.83
2022-11-28T04:08:50.349Z,1.65
2022-11-28T04:11:20.699Z,1.88
2022-11-28T04:14:06.696Z,0.73
2022-11-28T04:16:55.452Z,1.73
2022-11-28T04:19:30.233Z,0.90
2022-11-28T04:22:03.775Z,0.60
2022-11-28T04:24:37.245Z,1.13
2022-11-28T04:27:06.531Z,0.52
2022-11-28T04:29:37.968Z,0.40
2022-11-28T04:32:05.560Z,0.40
2022-11-28T04:34:34.198Z,0.30
2022-11-28T04:37:05.479Z,0.57
2022-11-28T04:39:35.943Z,0.47
2022-11-28T04:42:07.024Z,0.70
2022-11-28T04:44:59.410Z,0.52
2022-11-28T04:47:26.928Z,2.58
2022-11-28T04:49:54.572Z,0.30
2022-11-28T04:52:45.787Z,0.43
2022-11-28T04:55:33.903Z,0.25
2022-11-28T04:58:32.838Z,0.50
2022-11-28T05:01:00.642Z,0.65
2022-11-28T05:03:28.850Z,1.20
2022-11-28T05:05:56.602Z,0.30
2022-11-28T05:08:24.111Z,0.52
2022-11-28T05:10:51.555Z,0.30
2022-11-28T05:14:10.683Z,0.50
2022-11-28T05:16:38.195Z,0.82
2022-11-28T05:19:05.725Z,0.55
2022-11-28T05:21:33.067Z,0.70
2022-11-28T05:24:00.575Z,0.10
2022-11-28T05:26:27.949Z,1.17
2022-11-28T05:28:57.077Z,0.50
2022-11-28T05:31:24.575Z,0.40
2022-11-28T05:33:54.111Z,0.25
2022-11-28T05:36:21.584Z,0.30
2022-11-28T05:38:48.987Z,0.40
2022-11-28T05:41:22.851Z,0.30
2022-11-28T05:43:50.718Z,0.25
2022-11-28T05:46:18.293Z,0.93
2022-11-28T05:48:46.115Z,0.85
2022-11-28T05:51:13.905Z,0.70
2022-11-28T05:53:41.294Z,0.10
2022-11-28T05:56:13.850Z,1.42
2022-11-28T05:58:41.273Z,0.22
2022-11-28T06:01:17.140Z,0.55
2022-11-28T06:03:44.690Z,0.20
2022-11-28T06:06:17.017Z,0.65
2022-11-28T06:08:44.607Z,0.45
2022-11-28T06:11:12.240Z,0.30
2022-11-28T06:13:39.560Z,0.47
2022-11-28T06:16:17.769Z,0.63
2022-11-28T06:18:45.525Z,0.20
2022-11-28T06:21:13.835Z,0.40
2022-11-28T06:23:41.325Z,0.40
2022-11-28T06:26:12.491Z,0.25
2022-11-28T06:28:40.015Z,0.20
2022-11-28T06:31:20.226Z,0.25
2022-11-28T06:33:47.998Z,0.50
2022-11-28T06:36:16.118Z,1.67
2022-11-28T06:38:43.547Z,0.85
2022-11-28T06:41:13.027Z,1.15
2022-11-28T06:43:40.603Z,0.32
2022-11-28T06:46:16.523Z,0.40
2022-11-28T06:48:45.244Z,0.40
2022-11-28T06:51:13.297Z,0.20
2022-11-28T06:53:40.998Z,0.63
2022-11-28T06:56:16.101Z,0.60
2022-11-28T06:58:44.016Z,0.40
2022-11-28T07:01:16.956Z,0.35
2022-11-28T07:03:50.222Z,0.40
2022-11-28T07:06:18.617Z,0.20
2022-11-28T07:08:46.416Z,0.30
2022-11-28T07:11:17.543Z,0.20
2022-11-28T07:13:48.203Z,0.30
2022-11-28T07:16:20.325Z,0.23
2022-11-28T07:18:47.993Z,0.43
2022-11-28T07:21:15.847Z,0.30
2022-11-28T07:23:43.796Z,0.30
2022-11-28T07:26:12.003Z,0.50
2022-11-28T07:28:39.651Z,0.88
2022-11-28T07:31:25.872Z,0.38
2022-11-28T07:33:53.483Z,0.28
2022-11-28T07:36:25.248Z,0.20
2022-11-28T07:38:54.028Z,0.20
2022-11-28T07:41:26.253Z,0.20
2022-11-28T07:43:58.986Z,0.47
2022-11-28T07:46:26.803Z,0.30
2022-11-28T07:48:54.525Z,0.17
2022-11-28T07:51:24.774Z,0.98
2022-11-28T07:53:54.985Z,0.25
2022-11-28T07:56:31.943Z,0.40
2022-11-28T07:59:07.422Z,0.53
2022-11-28T08:01:38.588Z,0.30
2022-11-28T08:04:07.060Z,0.10
2022-11-28T08:06:37.279Z,0.20
2022-11-28T08:09:04.832Z,0.08
2022-11-28T08:11:35.502Z,0.08
2022-11-28T08:14:03.123Z,0.15
2022-11-28T08:16:30.777Z,0.20
2022-11-28T08:19:00.145Z,0.45
2022-11-28T08:21:30.021Z,0.20
2022-11-28T08:23:59.800Z,0.10
2022-11-28T08:26:30.546Z,0.95
2022-11-28T08:28:59.302Z,0.55
2022-11-28T08:31:34.341Z,0.35
2022-11-28T08:34:03.543Z,0.60
2022-11-28T08:36:30.872Z,0.47
2022-11-28T08:39:22.264Z,0.45
2022-11-28T08:41:48.482Z,0.40
2022-11-28T08:44:16.313Z,0.45
2022-11-28T08:46:44.937Z,0.70
2022-11-28T08:49:12.165Z,0.85
2022-11-28T08:51:39.320Z,0.20
2022-11-28T08:54:06.543Z,0.20
2022-11-28T08:56:34.243Z,0.30
2022-11-28T08:59:01.470Z,0.63
2022-11-28T09:01:28.661Z,0.22
2022-11-28T09:03:56.144Z,0.43
2022-11-28T09:06:23.629Z,0.63
2022-11-28T09:08:52.672Z,0.75
2022-11-28T09:11:52.359Z,0.80
2022-11-28T09:17:29.955Z,1.17
2022-11-28T09:41:02.878Z,0.55
2022-11-28T09:43:42.959Z,0.40
2022-11-28T09:46:24.239Z,0.45
2022-11-28T09:48:53.303Z,0.10
2022-11-28T09:51:34.698Z,0.30
2022-11-28T09:54:22.273Z,0.77
2022-11-28T09:56:50.034Z,1.20
2022-11-28T09:59:35.973Z,0.60
2022-11-28T10:02:35.908Z,0.30
2022-11-28T10:05:56.789Z,0.22
2022-11-28T10:08:53.867Z,0.17
2022-11-28T10:11:49.028Z,0.13
2022-11-28T10:14:45.516Z,0.10
2022-11-28T10:17:18.361Z,0.10
2022-11-28T10:19:58.163Z,0.52
2022-11-28T10:22:42.200Z,0.10
2022-11-28T10:25:15.583Z,0.10
2022-11-28T10:27:42.552Z,0.15
2022-11-28T10:30:34.748Z,0.13
2022-11-28T10:33:14.297Z,0.10
2022-11-28T10:35:53.275Z,0.70
2022-11-28T10:38:25.811Z,0.05
2022-11-28T10:40:59.753Z,0.20
2022-11-28T10:43:38.742Z,0.15
2022-11-28T10:46:14.918Z,0.10
2022-11-28T10:51:20.480Z,0.00
2022-11-28T10:54:03.091Z,0.35
2022-11-28T10:56:48.570Z,0.13
2022-11-28T10:59:18.530Z,0.10
2022-11-28T11:01:49.890Z,0.00
2022-11-28T11:04:19.587Z,0.00
2022-11-28T11:07:14.865Z,0.10
2022-11-28T11:09:45.378Z,0.00
2022-11-28T11:12:26.602Z,0.00
2022-11-28T11:14:53.708Z,0.00
2022-11-28T11:17:35.909Z,0.00
2022-11-28T11:20:25.619Z,0.00
2022-11-28T11:23:01.887Z,0.00
2022-11-28T11:28:01.968Z,0.00
2022-11-28T11:30:38.752Z,0.08
2022-11-28T11:33:16.534Z,0.00
2022-11-28T11:35:45.643Z,0.00
2022-11-28T11:38:39.703Z,0.00
2022-11-28T11:41:40.709Z,0.03
2022-11-28T11:44:20.630Z,0.10
2022-11-28T11:47:03.929Z,0.20
2022-11-28T11:49:33.919Z,0.00
2022-11-28T11:52:12.802Z,0.00
2022-11-28T11:54:53.983Z,0.00
2022-11-28T11:57:37.175Z,0.22
2022-11-28T12:00:10.287Z,0.10
2022-11-28T12:02:46.759Z,0.00
2022-11-28T12:05:17.115Z,0.10
2022-11-28T12:08:02.935Z,0.00
2022-11-28T12:10:31.862Z,0.20
2022-11-28T12:12:58.939Z,0.00
2022-11-28T12:15:39.216Z,0.00
2022-11-28T12:18:12.114Z,0.00
2022-11-28T12:21:07.869Z,0.00
2022-11-28T12:23:48.352Z,0.00
2022-11-28T12:26:23.934Z,0.00
2022-11-28T12:29:03.158Z,0.10
2022-11-28T12:31:40.744Z,0.00
2022-11-28T12:34:18.091Z,0.00
2022-11-28T12:36:58.304Z,0.00
2022-11-28T12:39:54.476Z,0.00
2022-11-28T12:42:47.457Z,0.10
2022-11-28T12:45:40.732Z,0.10
2022-11-28T12:48:34.805Z,0.00
2022-11-28T12:51:11.798Z,0.00
2022-11-28T12:53:48.869Z,0.00
2022-11-28T12:56:33.201Z,0.00
2022-11-28T12:59:22.323Z,0.10
2022-11-28T13:02:05.222Z,0.00
2022-11-28T13:04:56.648Z,0.20
2022-11-28T13:07:51.121Z,0.00
2022-11-28T13:10:31.115Z,0.00
2022-11-28T13:13:05.628Z,0.10
2022-11-28T13:15:47.892Z,0.22
2022-11-28T13:18:46.507Z,0.00
2022-11-28T13:21:25.854Z,0.13
2022-11-28T13:23:52.859Z,0.13
2022-11-28T13:26:38.521Z,0.30
2022-11-28T13:29:30.083Z,0.00
2022-11-28T13:32:05.321Z,0.40
2022-11-28T13:34:32.571Z,0.00
2022-11-28T13:39:53.529Z,0.20
2022-11-28T13:43:02.393Z,0.08
2022-11-28T13:45:32.197Z,0.20
2022-11-28T13:48:00.780Z,0.00
2022-11-28T13:50:36.134Z,0.00
2022-11-28T13:53:06.013Z,0.10
2022-11-28T13:55:44.714Z,0.10
2022-11-28T13:58:22.350Z,1.00
2022-11-28T14:01:16.331Z,0.10
2022-11-28T14:04:08.130Z,0.00
2022-11-28T14:06:47.806Z,0.10
2022-11-28T14:09:14.863Z,0.00
2022-11-28T14:12:14.965Z,0.10
2022-11-28T14:15:08.379Z,0.00
2022-11-28T14:17:41.735Z,0.10
2022-11-28T14:20:42.992Z,0.08
2022-11-28T14:23:48.682Z,0.10
2022-11-28T14:26:36.238Z,0.52
2022-11-28T14:29:04.454Z,0.60
2022-11-28T14:31:38.528Z,0.10
2022-11-28T14:34:06.295Z,0.10
2022-11-28T14:36:39.139Z,0.10
2022-11-28T14:39:10.834Z,0.17
2022-11-28T14:42:09.858Z,0.20
2022-11-28T14:45:03.236Z,0.17
2022-11-28T14:47:42.789Z,0.00
2022-11-28T14:50:10.503Z,0.10
2022-11-28T14:52:44.443Z,0.20
2022-11-28T14:55:13.082Z,0.10
2022-11-28T14:57:53.829Z,0.20
2022-11-28T15:00:25.684Z,0.10
2022-11-28T15:03:04.736Z,0.20
2022-11-28T15:05:49.918Z,0.20
2022-11-28T15:08:30.789Z,0.10
2022-11-28T15:11:19.785Z,0.40
2022-11-28T15:13:59.287Z,0.30
2022-11-28T15:16:30.831Z,0.47
2022-11-28T15:19:21.224Z,0.20
2022-11-28T15:21:49.630Z,0.30
2022-11-28T15:24:26.064Z,0.20
2022-11-28T15:27:23.669Z,0.15
2022-11-28T15:30:01.652Z,0.30
2022-11-28T15:32:31.374Z,0.10
2022-11-28T15:35:04.440Z,0.10
2022-11-28T15:37:34.943Z,0.10
2022-11-28T15:40:06.331Z,0.15
2022-11-28T15:42:34.172Z,0.20
2022-11-28T15:45:11.580Z,0.20
2022-11-28T15:47:38.571Z,0.20
2022-11-28T15:50:22.460Z,0.10
2022-11-28T16:03:38.585Z,0.15
2022-11-28T16:08:37.305Z,0.20
2022-11-28T16:11:05.141Z,0.20
2022-11-28T16:13:32.862Z,0.40
2022-11-28T22:55:36.605Z,2.15
2022-11-28T22:58:30.767Z,2.45
2022-11-28T23:01:10.707Z,2.38
2022-11-28T23:04:31.167Z,2.90
2022-11-28T23:08:08.580Z,2.65
2022-11-28T23:10:39.789Z,2.25
2022-11-28T23:13:08.570Z,2.47
2022-11-28T23:15:53.009Z,2.05
2022-11-28T23:18:21.439Z,1.50
2022-11-28T23:20:49.243Z,2.50
2022-11-28T23:23:17.068Z,2.17
2022-11-28T23:25:45.718Z,2.55
2022-11-28T23:29:10.903Z,2.25
2022-11-28T23:31:39.731Z,1.80
2022-11-28T23:34:09.619Z,2.30
2022-11-28T23:36:42.353Z,1.65
2022-11-28T23:39:12.313Z,1.92
2022-11-28T23:43:05.697Z,1.70
2022-11-28T23:45:33.669Z,1.80
2022-11-28T23:48:03.344Z,2.13
2022-11-28T23:57:12.688Z,1.67
2022-11-28T23:59:40.158Z,2.13
